createdAt,value
2019-03-15T00:00:35.495Z,98225.00
2019-03-15T00:03:11.697Z,98230.00
2019-03-15T00:05:54.175Z,98234.00
2019-03-15T00:08:31.339Z,98230.00
2019-03-15T00:11:13.272Z,98232.00
2019-03-15T00:13:49.772Z,98237.00
2019-03-15T00:16:33.030Z,98227.00
2019-03-15T00:19:09.324Z,98231.00
2019-03-15T00:21:51.187Z,98229.00
2019-03-15T00:24:27.161Z,98225.00
2019-03-15T00:27:09.853Z,98218.00
2019-03-15T00:29:45.348Z,98220.00
2019-03-15T00:32:28.800Z,98221.00
2019-03-15T00:35:11.392Z,98214.00
2019-03-15T00:37:47.389Z,98219.00
2019-03-15T00:40:30.105Z,98214.00
2019-03-15T00:43:12.405Z,98221.00
2019-03-15T00:45:54.966Z,98216.00
2019-03-15T00:48:37.671Z,98215.00
2019-03-15T00:51:13.724Z,98211.00
2019-03-15T00:53:49.486Z,98215.00
2019-03-15T00:56:31.732Z,98206.00
2019-03-15T00:59:21.744Z,98207.00
2019-03-15T01:01:57.804Z,98202.00
2019-03-15T01:04:40.087Z,98205.00
2019-03-15T01:07:22.959Z,98206.00
2019-03-15T01:09:59.279Z,98212.00
2019-03-15T01:12:42.505Z,98199.00
2019-03-15T01:15:29.069Z,98201.00
2019-03-15T01:18:04.579Z,98202.00
2019-03-15T01:20:47.742Z,98197.00
2019-03-15T01:23:29.781Z,98195.00
2019-03-15T01:26:06.213Z,98189.00
2019-03-15T01:28:48.380Z,98189.00
2019-03-15T01:31:24.694Z,98188.00
2019-03-15T01:34:07.480Z,98191.00
2019-03-15T01:36:43.040Z,98197.00
2019-03-15T01:39:25.280Z,98188.00
2019-03-15T01:42:01.656Z,98188.00
2019-03-15T01:44:44.373Z,98193.00
2019-03-15T01:47:20.424Z,98196.00
2019-03-15T01:50:03.558Z,98195.00
2019-03-15T01:52:39.762Z,98191.00
2019-03-15T01:55:22.558Z,98186.00
2019-03-15T01:57:59.018Z,98188.00
2019-03-15T02:00:41.889Z,98195.00
2019-03-15T02:03:24.056Z,98197.00
2019-03-15T02:06:06.908Z,98190.00
2019-03-15T02:08:42.711Z,98192.00
2019-03-15T02:11:25.096Z,98189.00
2019-03-15T02:14:08.359Z,98184.00
2019-03-15T02:16:51.207Z,98180.00
2019-03-15T02:19:26.688Z,98178.00
2019-03-15T02:22:08.998Z,98190.00
2019-03-15T02:24:52.208Z,98183.00
2019-03-15T02:27:34.543Z,98185.00
2019-03-15T02:30:13.396Z,98186.00
2019-03-15T02:32:49.159Z,98184.00
2019-03-15T02:35:32.336Z,98191.00
2019-03-15T02:38:22.039Z,98188.00
2019-03-15T02:40:57.790Z,98188.00
2019-03-15T02:43:39.871Z,98187.00
2019-03-15T02:46:22.375Z,98183.00
2019-03-15T02:48:58.840Z,98188.00
2019-03-15T02:51:40.373Z,98193.00
2019-03-15T02:54:23.099Z,98196.00
2019-03-15T02:56:58.696Z,98190.00
2019-03-15T02:59:41.014Z,98181.00
2019-03-15T03:02:17.037Z,98190.00
2019-03-15T03:04:58.736Z,98187.00
2019-03-15T03:07:34.565Z,98192.00
2019-03-15T03:10:17.392Z,98192.00
2019-03-15T03:12:53.751Z,98185.00
2019-03-15T03:15:36.774Z,98180.00
2019-03-15T03:18:12.916Z,98184.00
2019-03-15T03:20:55.416Z,98181.00
2019-03-15T03:23:38.611Z,98179.00
2019-03-15T03:26:20.660Z,98190.00
2019-03-15T03:28:57.044Z,98194.00
2019-03-15T03:31:40.257Z,98179.00
2019-03-15T03:34:16.784Z,98183.00
2019-03-15T03:36:59.701Z,98186.00
2019-03-15T03:39:35.565Z,98195.00
2019-03-15T03:42:18.443Z,98193.00
2019-03-15T03:44:54.768Z,98193.00
2019-03-15T03:47:36.839Z,98191.00
2019-03-15T03:50:16.813Z,98191.00
2019-03-15T03:52:58.405Z,98190.00
2019-03-15T03:55:34.126Z,98190.00
2019-03-15T03:58:17.089Z,98189.00
2019-03-15T04:01:00.394Z,98185.00
2019-03-15T04:04:02.963Z,98186.00
2019-03-15T04:06:44.620Z,98196.00
2019-03-15T04:09:26.585Z,98194.00
2019-03-15T04:12:02.106Z,98205.00
2019-03-15T04:14:44.752Z,98197.00
2019-03-15T04:17:26.441Z,98196.00
2019-03-15T04:20:09.639Z,98200.00
2019-03-15T04:22:45.689Z,98205.00
2019-03-15T04:25:28.866Z,98202.00
2019-03-15T04:28:04.741Z,98212.00
2019-03-15T04:30:46.514Z,98208.00
2019-03-15T04:33:22.905Z,98206.00
2019-03-15T04:36:05.344Z,98206.00
2019-03-15T04:38:41.676Z,98213.00
2019-03-15T04:41:24.680Z,98211.00
2019-03-15T04:44:01.053Z,98224.00
2019-03-15T04:46:43.514Z,98223.00
2019-03-15T04:49:19.495Z,98228.00
2019-03-15T04:52:01.692Z,98230.00
2019-03-15T04:54:38.050Z,98232.00
2019-03-15T04:57:20.329Z,98229.00
2019-03-15T05:00:02.637Z,98230.00
2019-03-15T05:02:51.415Z,98228.00
2019-03-15T05:05:34.576Z,98231.00
2019-03-15T05:08:10.477Z,98228.00
2019-03-15T05:10:53.304Z,98220.00
2019-03-15T05:16:22.762Z,98231.00
2019-03-15T05:18:58.393Z,98231.00
2019-03-15T05:21:41.294Z,98228.00
2019-03-15T05:24:23.425Z,98234.00
2019-03-15T05:27:05.990Z,98237.00
2019-03-15T05:29:41.692Z,98231.00
2019-03-15T05:32:23.656Z,98232.00
2019-03-15T05:35:06.031Z,98230.00
2019-03-15T05:37:48.523Z,98227.00
2019-03-15T05:40:24.715Z,98233.00
2019-03-15T05:43:07.730Z,98236.00
2019-03-15T05:45:44.073Z,98237.00
2019-03-15T05:48:27.025Z,98248.00
2019-03-15T05:51:10.101Z,98249.00
2019-03-15T05:53:52.815Z,98243.00
2019-03-15T05:56:29.212Z,98237.00
2019-03-15T05:59:11.408Z,98247.00
2019-03-15T06:01:47.721Z,98253.00
2019-03-15T06:04:30.581Z,98242.00
2019-03-15T06:07:07.382Z,98248.00
2019-03-15T06:09:49.270Z,98246.00
2019-03-15T06:12:31.773Z,98254.00
2019-03-15T06:15:33.792Z,98252.00
2019-03-15T06:18:15.908Z,98257.00
2019-03-15T06:20:51.756Z,98249.00
2019-03-15T06:23:33.492Z,98255.00
2019-03-15T06:26:16.079Z,98247.00
2019-03-15T06:29:05.376Z,98254.00
2019-03-15T06:31:41.289Z,98256.00
2019-03-15T06:34:23.931Z,98261.00
2019-03-15T06:37:19.849Z,98255.00
2019-03-15T06:40:02.945Z,98254.00
2019-03-15T06:42:39.374Z,98252.00
2019-03-15T06:45:22.839Z,98262.00
2019-03-15T06:47:59.145Z,98255.00
2019-03-15T06:50:41.783Z,98262.00
2019-03-15T06:53:18.328Z,98258.00
2019-03-15T06:56:00.431Z,98261.00
2019-03-15T06:58:36.415Z,98258.00
2019-03-15T07:01:18.543Z,98262.00
2019-03-15T07:04:00.354Z,98262.00
2019-03-15T07:06:36.283Z,98259.00
2019-03-15T07:09:18.793Z,98259.00
2019-03-15T07:11:54.935Z,98256.00
2019-03-15T07:14:37.535Z,98257.00
2019-03-15T07:17:20.672Z,98264.00
2019-03-15T07:20:03.713Z,98264.00
2019-03-15T07:22:40.149Z,98267.00
2019-03-15T07:25:23.015Z,98270.00
2019-03-15T07:27:59.437Z,98274.00
2019-03-15T07:30:41.773Z,98282.00
2019-03-15T07:33:17.390Z,98284.00
2019-03-15T07:35:59.677Z,98282.00
2019-03-15T07:38:42.586Z,98287.00
2019-03-15T07:41:18.710Z,98288.00
2019-03-15T07:44:01.576Z,98280.00
2019-03-15T07:46:51.220Z,98296.00
2019-03-15T07:49:27.530Z,98297.00
2019-03-15T07:52:09.734Z,98286.00
2019-03-15T07:54:45.494Z,98283.00
2019-03-15T07:57:27.772Z,98292.00
2019-03-15T08:00:12.836Z,98290.00
2019-03-15T08:02:49.332Z,98291.00
2019-03-15T08:05:25.611Z,98292.00
2019-03-15T08:08:08.530Z,98302.00
2019-03-15T08:10:58.027Z,98298.00
2019-03-15T08:13:47.458Z,98295.00
2019-03-15T08:16:30.350Z,98303.00
2019-03-15T08:19:05.755Z,98302.00
2019-03-15T08:21:48.030Z,98308.00
2019-03-15T08:24:24.762Z,98307.00
2019-03-15T08:27:07.124Z,98305.00
2019-03-15T08:29:43.289Z,98305.00
2019-03-15T08:32:26.012Z,98310.00
2019-03-15T08:35:08.208Z,98307.00
2019-03-15T08:37:50.391Z,98311.00
2019-03-15T08:40:26.839Z,98307.00
2019-03-15T08:43:09.744Z,98303.00
2019-03-15T08:45:52.053Z,98312.00
2019-03-15T08:48:27.801Z,98323.00
2019-03-15T08:51:11.119Z,98323.00
2019-03-15T08:53:46.678Z,98325.00
2019-03-15T08:56:28.935Z,98322.00
2019-03-15T08:59:04.530Z,98327.00
2019-03-15T09:01:47.285Z,98319.00
2019-03-15T09:04:30.035Z,98322.00
2019-03-15T09:07:06.265Z,98329.00
2019-03-15T09:09:42.158Z,98332.00
2019-03-15T09:12:25.244Z,98331.00
2019-03-15T09:15:08.302Z,98335.00
2019-03-15T09:17:45.009Z,98335.00
2019-03-15T09:20:30.128Z,98328.00
2019-03-15T09:23:12.827Z,98339.00
2019-03-15T09:25:56.054Z,98335.00
2019-03-15T09:28:31.642Z,98333.00
2019-03-15T09:31:14.997Z,98334.00
2019-03-15T09:33:51.027Z,98344.00
2019-03-15T09:36:34.151Z,98338.00
2019-03-15T09:39:11.390Z,98335.00
2019-03-15T09:41:53.912Z,98335.00
2019-03-15T09:44:30.111Z,98345.00
2019-03-15T09:47:12.927Z,98342.00
2019-03-15T09:49:49.019Z,98340.00
2019-03-15T09:52:31.570Z,98339.00
2019-03-15T09:55:07.148Z,98346.00
2019-03-15T09:57:49.139Z,98338.00
2019-03-15T10:00:28.883Z,98339.00
2019-03-15T10:03:04.767Z,98345.00
2019-03-15T10:05:47.086Z,98336.00
2019-03-15T10:08:29.205Z,98341.00
2019-03-15T10:11:11.769Z,98340.00
2019-03-15T10:13:47.829Z,98342.00
2019-03-15T10:16:30.944Z,98348.00
2019-03-15T10:19:07.321Z,98348.00
2019-03-15T10:21:49.727Z,98333.00
2019-03-15T10:24:32.611Z,98338.00
2019-03-15T10:27:21.786Z,98340.00
2019-03-15T10:29:57.775Z,98344.00
2019-03-15T10:32:33.666Z,98342.00
2019-03-15T10:35:16.210Z,98338.00
2019-03-15T10:37:52.233Z,98334.00
2019-03-15T10:40:38.186Z,98330.00
2019-03-15T10:43:20.233Z,98332.00
2019-03-15T10:45:56.282Z,98332.00
2019-03-15T10:48:38.719Z,98330.00
2019-03-15T10:51:21.005Z,98338.00
2019-03-15T10:53:57.505Z,98331.00
2019-03-15T10:56:59.588Z,98335.00
2019-03-15T10:59:48.914Z,98334.00
2019-03-15T11:02:31.621Z,98340.00
2019-03-15T11:05:23.895Z,98324.00
2019-03-15T11:08:07.315Z,98333.00
2019-03-15T11:10:43.197Z,98327.00
2019-03-15T11:13:32.237Z,98324.00
2019-03-15T11:16:22.005Z,98328.00
2019-03-15T11:19:10.881Z,98347.00
2019-03-15T11:21:52.730Z,98335.00
2019-03-15T11:24:36.493Z,98345.00
2019-03-15T11:27:18.203Z,98341.00
2019-03-15T11:29:54.630Z,98343.00
2019-03-15T11:32:36.569Z,98345.00
2019-03-15T11:35:15.007Z,98352.00
2019-03-15T11:37:58.082Z,98365.00
2019-03-15T11:40:33.553Z,98351.00
2019-03-15T11:43:16.005Z,98355.00
2019-03-15T11:45:51.745Z,98354.00
2019-03-15T11:48:35.707Z,98345.00
2019-03-15T11:51:18.300Z,98354.00
2019-03-15T11:54:01.370Z,98343.00
2019-03-15T11:56:43.880Z,98346.00
2019-03-15T11:59:26.373Z,98345.00
2019-03-15T12:02:04.164Z,98348.00
2019-03-15T12:04:47.749Z,98347.00
2019-03-15T12:07:36.418Z,98353.00
2019-03-15T12:10:31.175Z,98358.00
2019-03-15T12:13:13.844Z,98369.00
2019-03-15T12:15:50.414Z,98358.00
2019-03-15T12:18:32.755Z,98368.00
2019-03-15T12:21:15.797Z,98366.00
2019-03-15T12:23:58.095Z,98360.00
2019-03-15T12:26:41.052Z,98368.00
2019-03-15T12:29:16.708Z,98363.00
2019-03-15T12:31:59.338Z,98381.00
2019-03-15T12:34:48.633Z,98355.00
2019-03-15T12:37:24.161Z,98354.00
2019-03-15T12:40:06.674Z,98355.00
2019-03-15T12:42:42.621Z,98351.00
2019-03-15T12:45:27.586Z,98352.00
2019-03-15T12:48:09.845Z,98352.00
2019-03-15T12:50:46.312Z,98344.00
2019-03-15T12:53:21.916Z,98358.00
2019-03-15T12:56:04.485Z,98354.00
2019-03-15T12:58:48.096Z,98353.00
2019-03-15T13:01:31.234Z,98353.00
2019-03-15T13:04:13.933Z,98353.00
2019-03-15T13:06:57.109Z,98341.00
2019-03-15T13:09:39.721Z,98345.00
2019-03-15T13:12:22.278Z,98351.00
2019-03-15T13:15:05.542Z,98346.00
2019-03-15T13:17:47.879Z,98334.00
2019-03-15T13:20:31.390Z,98335.00
2019-03-15T13:23:20.739Z,98337.00
2019-03-15T13:25:57.155Z,98332.00
2019-03-15T13:28:40.190Z,98340.00
2019-03-15T13:31:16.891Z,98339.00
2019-03-15T13:33:59.877Z,98327.00
2019-03-15T13:36:48.710Z,98335.00
2019-03-15T13:39:24.460Z,98334.00
2019-03-15T13:42:07.005Z,98341.00
2019-03-15T13:44:43.047Z,98325.00
2019-03-15T13:47:26.456Z,98334.00
2019-03-15T13:50:09.142Z,98345.00
2019-03-15T13:52:45.311Z,98345.00
2019-03-15T13:55:21.525Z,98351.00
2019-03-15T13:57:57.651Z,98357.00
2019-03-15T14:00:40.290Z,98351.00
2019-03-15T14:03:23.129Z,98341.00
2019-03-15T14:06:06.096Z,98345.00
2019-03-15T14:08:48.879Z,98340.00
2019-03-15T14:11:24.380Z,98326.00
2019-03-15T14:14:06.354Z,98329.00
2019-03-15T14:16:49.094Z,98326.00
2019-03-15T14:19:31.981Z,98331.00
2019-03-15T14:22:14.316Z,98332.00
2019-03-15T14:24:57.079Z,98325.00
2019-03-15T14:27:37.833Z,98321.00
2019-03-15T14:30:20.649Z,98324.00
2019-03-15T14:33:03.336Z,98309.00
2019-03-15T14:35:39.269Z,98315.00
2019-03-15T14:38:22.177Z,98315.00
2019-03-15T14:41:07.454Z,98329.00
2019-03-15T14:43:48.706Z,98321.00
2019-03-15T14:46:24.551Z,98304.00
2019-03-15T14:49:07.271Z,98297.00
2019-03-15T14:51:43.175Z,98293.00
2019-03-15T14:54:26.109Z,98291.00
2019-03-15T14:57:01.638Z,98299.00
2019-03-15T14:59:44.061Z,98301.00
2019-03-15T15:02:26.027Z,98301.00
2019-03-15T15:05:01.869Z,98298.00
2019-03-15T15:07:44.530Z,98297.00
2019-03-15T15:10:33.288Z,98291.00
2019-03-15T15:13:15.734Z,98295.00
2019-03-15T15:15:52.481Z,98293.00
2019-03-15T15:18:29.156Z,98281.00
2019-03-15T15:21:12.189Z,98294.00
2019-03-15T15:23:54.582Z,98284.00
2019-03-15T15:26:30.494Z,98285.00
2019-03-15T15:29:13.781Z,98279.00
2019-03-15T15:31:52.265Z,98267.00
2019-03-15T15:34:35.163Z,98257.00
2019-03-15T15:37:11.381Z,98264.00
2019-03-15T15:39:56.112Z,98257.00
2019-03-15T15:42:32.540Z,98249.00
2019-03-15T15:45:20.405Z,98221.00
2019-03-15T15:47:56.508Z,98235.00
2019-03-15T15:50:40.235Z,98235.00
2019-03-15T15:53:22.287Z,98230.00
2019-03-15T15:56:13.944Z,98225.00
2019-03-15T15:58:55.991Z,98227.00
2019-03-15T16:01:38.511Z,98217.00
2019-03-15T16:04:22.710Z,98217.00
2019-03-15T16:06:58.369Z,98203.00
2019-03-15T16:09:34.291Z,98194.00
2019-03-15T16:12:17.193Z,98212.00
2019-03-15T16:14:59.960Z,98193.00
2019-03-15T16:17:45.396Z,98192.00
2019-03-15T16:20:27.185Z,98187.00
2019-03-15T16:23:09.668Z,98180.00
2019-03-15T16:25:45.652Z,98181.00
2019-03-15T16:28:31.863Z,98195.00
2019-03-15T16:31:12.607Z,98170.00
2019-03-15T16:33:55.863Z,98172.00
2019-03-15T16:36:31.843Z,98172.00
2019-03-15T16:39:14.386Z,98160.00
2019-03-15T16:41:56.349Z,98161.00
2019-03-15T16:44:38.942Z,98154.00
2019-03-15T16:47:15.224Z,98146.00
2019-03-15T16:49:57.941Z,98133.00
2019-03-15T16:52:33.832Z,98131.00
2019-03-15T16:55:19.246Z,98135.00
2019-03-15T16:58:01.855Z,98124.00
2019-03-15T17:00:44.103Z,98124.00
2019-03-15T17:03:20.409Z,98119.00
2019-03-15T17:05:56.165Z,98115.00
2019-03-15T17:08:39.035Z,98105.00
2019-03-15T17:11:21.306Z,98100.00
2019-03-15T17:14:03.570Z,98094.00
2019-03-15T17:16:46.391Z,98086.00
2019-03-15T17:19:21.992Z,98088.00
2019-03-15T17:25:10.150Z,98068.00
2019-03-15T17:27:53.289Z,98062.00
2019-03-15T17:30:29.862Z,98064.00
2019-03-15T17:33:12.427Z,98049.00
2019-03-15T17:35:49.066Z,98049.00
2019-03-15T17:38:32.160Z,98042.00
2019-03-15T17:41:08.709Z,98017.00
2019-03-15T17:43:51.179Z,98009.00
2019-03-15T17:46:27.587Z,97999.00
2019-03-15T17:49:10.232Z,97988.00
2019-03-15T17:51:46.682Z,97979.00
2019-03-15T17:54:28.615Z,97968.00
2019-03-15T17:57:12.100Z,97960.00
2019-03-15T17:59:48.043Z,97951.00
2019-03-15T18:02:31.833Z,97945.00
2019-03-15T18:05:07.126Z,97927.00
2019-03-15T18:07:49.994Z,97928.00
2019-03-15T18:10:17.054Z,97919.00
2019-03-15T18:13:08.247Z,97911.00
2019-03-15T18:15:51.367Z,97904.00
2019-03-15T18:18:34.803Z,97886.00
2019-03-15T18:26:18.582Z,97850.00
2019-03-15T18:31:33.647Z,97831.00
2019-03-15T18:34:15.954Z,97818.00
2019-03-15T18:36:51.935Z,97805.00
2019-03-15T18:39:34.208Z,97795.00
2019-03-15T18:42:17.025Z,97791.00
2019-03-15T18:45:00.453Z,97782.00
2019-03-15T18:47:42.848Z,97766.00
2019-03-15T18:50:41.850Z,97759.00
2019-03-15T18:53:26.355Z,97760.00
2019-03-15T18:56:02.933Z,97743.00
2019-03-15T18:58:45.482Z,97749.00
2019-03-15T19:01:22.132Z,97731.00
2019-03-15T19:04:04.541Z,97727.00
2019-03-15T19:06:41.094Z,97724.00
2019-03-15T19:09:37.865Z,97715.00
2019-03-15T19:12:24.962Z,97704.00
2019-03-15T19:15:08.027Z,97703.00
2019-03-15T19:17:44.706Z,97687.00
2019-03-15T19:20:27.204Z,97683.00
2019-03-15T19:23:03.050Z,97664.00
2019-03-15T19:25:46.157Z,97660.00
2019-03-15T19:28:29.427Z,97641.00
2019-03-15T19:31:18.759Z,97636.00
2019-03-15T19:33:56.975Z,97632.00
2019-03-15T19:36:39.578Z,97654.00
2019-03-15T19:39:28.914Z,97636.00
2019-03-15T19:42:11.288Z,97632.00
2019-03-15T19:44:47.796Z,97635.00
2019-03-15T19:47:29.933Z,97631.00
2019-03-15T19:50:14.391Z,97623.00
2019-03-15T19:52:57.278Z,97621.00
2019-03-15T19:55:51.874Z,97621.00
2019-03-15T19:58:30.277Z,97619.00
2019-03-15T20:01:08.077Z,97613.00
2019-03-15T20:03:51.150Z,97613.00
2019-03-15T20:06:29.178Z,97618.00
2019-03-15T20:09:14.506Z,97647.00
2019-03-15T20:11:51.303Z,97669.00
2019-03-15T20:14:33.506Z,97684.00
2019-03-15T20:17:09.441Z,97650.00
2019-03-15T20:19:51.943Z,97621.00
2019-03-15T20:22:28.363Z,97593.00
2019-03-15T20:25:13.084Z,97584.00
2019-03-15T20:27:49.424Z,97582.00
2019-03-15T20:30:32.708Z,97578.00
2019-03-15T20:33:09.246Z,97566.00
2019-03-15T20:35:52.151Z,97564.00
2019-03-15T20:38:35.011Z,97537.00
2019-03-15T20:41:23.879Z,97551.00
2019-03-15T20:44:27.439Z,97562.00
2019-03-15T20:47:04.325Z,97559.00
2019-03-15T20:49:53.371Z,97555.00
2019-03-15T20:52:42.160Z,97554.00
2019-03-15T20:55:31.518Z,97557.00
2019-03-15T20:58:22.301Z,97567.00
2019-03-15T21:01:11.421Z,97562.00
2019-03-15T21:04:00.481Z,97558.00
2019-03-15T21:06:52.863Z,97566.00
2019-03-15T21:09:42.367Z,97559.00
2019-03-15T21:12:24.759Z,97555.00
2019-03-15T21:15:06.826Z,97555.00
2019-03-15T21:17:42.382Z,97546.00
2019-03-15T21:20:26.130Z,97531.00
2019-03-15T21:22:53.069Z,97536.00
2019-03-15T21:25:41.690Z,97527.00
2019-03-15T21:28:23.970Z,97525.00
2019-03-15T21:31:06.075Z,97512.00
2019-03-15T21:33:55.736Z,97502.00
2019-03-15T21:36:45.464Z,97410.00
2019-03-15T21:39:12.506Z,97493.00
2019-03-15T21:42:01.880Z,97492.00
2019-03-15T21:44:54.171Z,97490.00
2019-03-15T21:50:10.040Z,97478.00
2019-03-15T21:53:19.382Z,97475.00
2019-03-15T21:56:08.712Z,97466.00
2019-03-15T22:01:24.138Z,97457.00
2019-03-15T22:04:14.047Z,97453.00
2019-03-15T22:07:03.850Z,97449.00
2019-03-15T22:09:55.407Z,97449.00
2019-03-15T22:12:45.369Z,97448.00
2019-03-15T22:15:34.802Z,97450.00
2019-03-15T22:18:24.561Z,97447.00
2019-03-15T22:21:14.055Z,97431.00
2019-03-15T22:23:41.101Z,97435.00
2019-03-15T22:26:30.191Z,97436.00
2019-03-15T22:29:13.004Z,97426.00
2019-03-15T22:31:55.094Z,97419.00
2019-03-15T22:34:45.017Z,97420.00
2019-03-15T22:37:35.024Z,97410.00
2019-03-15T22:40:26.551Z,97415.00
2019-03-15T22:43:16.002Z,97399.00
2019-03-15T22:46:05.063Z,97382.00
2019-03-15T22:48:54.344Z,97342.00
2019-03-15T22:51:43.308Z,97376.00
2019-03-15T22:54:32.562Z,97362.00
2019-03-15T22:57:21.169Z,97369.00
2019-03-15T23:02:44.783Z,97359.00
2019-03-15T23:05:34.195Z,97342.00
2019-03-15T23:10:51.238Z,97334.00
2019-03-15T23:13:40.351Z,97337.00
2019-03-15T23:16:29.933Z,97342.00
2019-03-15T23:19:19.628Z,97309.00
2019-03-15T23:22:08.825Z,97305.00
2019-03-15T23:24:51.115Z,97310.00
2019-03-15T23:27:27.704Z,97301.00
2019-03-15T23:30:11.266Z,97291.00
2019-03-15T23:32:53.835Z,97282.00
2019-03-15T23:40:41.663Z,97288.00
2019-03-15T23:43:17.325Z,97282.00
2019-03-15T23:45:59.756Z,97290.00
2019-03-15T23:48:36.320Z,97278.00
2019-03-15T23:51:18.742Z,97280.00
2019-03-15T23:53:55.159Z,97278.00
2019-03-15T23:56:37.241Z,97275.00
2019-03-15T23:59:19.767Z,97264.00
